Penrose, Colorado
Current Conditions -  °F | °C
As of 2:55 AM on Saturday 25 Oct 2014 (Local Time) from K1V6 Reporting Station
Clear Clear  
Wind Chill: 61°   Ceiling: Unl
Heat Index: 61°   Visibility: 10mi
Dew Point: 23°   Wind: 20mph
Humidity: 23%   Direction: 290°WNW
Pressure: 30.23"   Gusts: NA
Location:  38.42°N, 105.02°W
Report Text: K1V6 250855Z AUTO 29017KT 10SM CLR 16/M05 A3023 RMK AO2
Loading
Personal Weather Stations






























Interactive Weather Map
Tropical Storm Tracking
New forecast layout! Learn more

10-Day Weather Forecast

Advertisements
Track Severe Weather on mobile